This is the latest recevied weather packets stored in our database for station/object EA7AIS-10. If no packets are shown the sender has not sent any weather packets the latest 10 day(s).
| Time | Temp. | Humidity | Pressure | Rain* | Wind** | Luminosity | Snow |
|---|---|---|---|---|---|---|---|
| 1777605365 | 15° C | 81% | 1015.2 hPa | - | - | - | - |
| 1777604465 | 15° C | 79% | 1015.2 hPa | - | - | - | - |
| 1777603565 | 15° C | 79% | 1015.1 hPa | - | - | - | - |
| 1777602664 | 15° C | 79% | 1015.1 hPa | - | - | - | - |
| 1777583763 | 18.89° C | 60% | 1014.9 hPa | - | - | - | - |
| 1777581963 | 19.44° C | 60% | 1014.6 hPa | - | - | - | - |
| 1777581063 | 20° C | 60% | 1014.3 hPa | - | - | - | - |
| 1777580163 | 20° C | 59% | 1014 hPa | - | - | - | - |
| 1777572963 | 22.78° C | 51% | 1012.6 hPa | - | - | - | - |
| 1777572062 | 22.78° C | 51% | 1012.7 hPa | - | - | - | - |
| 1777570262 | 23.33° C | 48% | 1012.6 hPa | - | - | - | - |
| 1777568462 | 25° C | 45% | 1012.6 hPa | - | - | - | - |
| 1777566662 | 25° C | 44% | 1012.6 hPa | - | - | - | - |
| 1777563061 | 25.56° C | 43% | 1012.7 hPa | - | - | - | - |
| 1777559461 | 26.11° C | 42% | 1012.9 hPa | - | - | - | - |
| 1777557661 | 25.56° C | 47% | 1013.1 hPa | - | - | - | - |
| 1777556761 | 25° C | 48% | 1013.2 hPa | - | - | - | - |
| 1777555861 | 24.44° C | 51% | 1013.1 hPa | - | - | - | - |
| 1777554961 | 23.89° C | 54% | 1012.9 hPa | - | - | - | - |
| 1777554061 | 23.89° C | 54% | 1013 hPa | - | - | - | - |
| 1777552260 | 23.33° C | 57% | 1013.2 hPa | - | - | - | - |
| 1777551361 | 23.89° C | 52% | 1013.2 hPa | - | - | - | - |
| 1777550460 | 23.89° C | 45% | 1013.2 hPa | - | - | - | - |
| 1777548660 | 23.89° C | 40% | 1013.2 hPa | - | - | - | - |
| 1777547761 | 23.33° C | 40% | 1013.4 hPa | - | - | - | - |
* Rain since midnight (hover to see other rain measurements)
** Current wind speed in m/s (hover to see current wind gust speed)